sensor_id;sensor_type;location;lat;lon;timestamp;pressure;altitude;pressure_sealevel;temperature;humidity
76611;BME280;65503;48.534;9.062;2023-08-08T00:01:08;97175.28;;;13.96;67.38
76611;BME280;65503;48.534;9.062;2023-08-08T00:03:35;97170.25;;;13.94;67.73
76611;BME280;65503;48.534;9.062;2023-08-08T00:06:02;97164.91;;;13.89;67.43
76611;BME280;65503;48.534;9.062;2023-08-08T00:08:29;97165.38;;;13.86;67.57
76611;BME280;65503;48.534;9.062;2023-08-08T00:10:55;97168.25;;;13.85;67.42
76611;BME280;65503;48.534;9.062;2023-08-08T00:13:22;97160.53;;;13.78;68.23
76611;BME280;65503;48.534;9.062;2023-08-08T00:15:49;97165.81;;;13.78;68.08
76611;BME280;65503;48.534;9.062;2023-08-08T00:18:15;97166.84;;;13.77;68.11
76611;BME280;65503;48.534;9.062;2023-08-08T00:20:42;97164.22;;;13.77;68.37
76611;BME280;65503;48.534;9.062;2023-08-08T00:23:08;97156.28;;;13.77;68.67
76611;BME280;65503;48.534;9.062;2023-08-08T00:25:35;97165.88;;;13.83;68.77
76611;BME280;65503;48.534;9.062;2023-08-08T00:28:03;97163.78;;;13.85;68.77
76611;BME280;65503;48.534;9.062;2023-08-08T00:30:29;97166.47;;;13.90;68.74
76611;BME280;65503;48.534;9.062;2023-08-08T00:32:56;97157.03;;;13.94;68.48
76611;BME280;65503;48.534;9.062;2023-08-08T00:35:23;97154.91;;;13.96;68.33
76611;BME280;65503;48.534;9.062;2023-08-08T00:37:49;97157.63;;;14.01;68.53
76611;BME280;65503;48.534;9.062;2023-08-08T00:40:16;97163.78;;;14.07;68.29
76611;BME280;65503;48.534;9.062;2023-08-08T00:42:42;97168.81;;;14.08;67.92
76611;BME280;65503;48.534;9.062;2023-08-08T00:45:09;97159.66;;;14.16;67.69
76611;BME280;65503;48.534;9.062;2023-08-08T00:47:36;97162.06;;;14.18;67.84
76611;BME280;65503;48.534;9.062;2023-08-08T00:50:03;97164.78;;;14.23;67.41
76611;BME280;65503;48.534;9.062;2023-08-08T00:52:30;97167.94;;;14.25;67.68
76611;BME280;65503;48.534;9.062;2023-08-08T00:54:57;97159.78;;;14.26;67.79
76611;BME280;65503;48.534;9.062;2023-08-08T00:57:24;97156.66;;;14.29;67.14
76611;BME280;65503;48.534;9.062;2023-08-08T00:59:51;97156.94;;;14.33;67.23
76611;BME280;65503;48.534;9.062;2023-08-08T01:02:17;97151.09;;;14.31;66.85
76611;BME280;65503;48.534;9.062;2023-08-08T01:04:44;97151.88;;;14.31;66.98
76611;BME280;65503;48.534;9.062;2023-08-08T01:10:12;97145.31;;;14.34;66.94
76611;BME280;65503;48.534;9.062;2023-08-08T01:12:41;97157.97;;;14.32;66.91
76611;BME280;65503;48.534;9.062;2023-08-08T01:15:10;97147.59;;;14.25;67.01
76611;BME280;65503;48.534;9.062;2023-08-08T01:17:38;97146.66;;;14.15;67.48
76611;BME280;65503;48.534;9.062;2023-08-08T01:20:06;97143.47;;;14.13;67.61
76611;BME280;65503;48.534;9.062;2023-08-08T01:22:44;97132.34;;;14.11;67.47
76611;BME280;65503;48.534;9.062;2023-08-08T01:25:11;97133.38;;;14.10;67.46
76611;BME280;65503;48.534;9.062;2023-08-08T01:27:38;97144.47;;;14.06;67.95
76611;BME280;65503;48.534;9.062;2023-08-08T01:30:06;97138.63;;;14.04;67.75
76611;BME280;65503;48.534;9.062;2023-08-08T01:32:33;97142.88;;;14.05;68.00
76611;BME280;65503;48.534;9.062;2023-08-08T01:35:00;97131.78;;;14.08;68.16
76611;BME280;65503;48.534;9.062;2023-08-08T01:37:32;97136.09;;;14.15;67.86
76611;BME280;65503;48.534;9.062;2023-08-08T01:40:03;97131.88;;;14.19;67.95
76611;BME280;65503;48.534;9.062;2023-08-08T01:42:32;97130.31;;;14.18;68.26
76611;BME280;65503;48.534;9.062;2023-08-08T01:44:59;97128.66;;;14.12;67.82
76611;BME280;65503;48.534;9.062;2023-08-08T01:47:25;97124.50;;;14.21;67.74
76611;BME280;65503;48.534;9.062;2023-08-08T01:49:52;97132.03;;;14.29;67.61
76611;BME280;65503;48.534;9.062;2023-08-08T01:52:19;97124.13;;;14.34;67.44
76611;BME280;65503;48.534;9.062;2023-08-08T01:54:45;97118.34;;;14.37;67.17
76611;BME280;65503;48.534;9.062;2023-08-08T01:57:12;97120.44;;;14.35;67.38
76611;BME280;65503;48.534;9.062;2023-08-08T01:59:38;97116.94;;;14.29;67.49
76611;BME280;65503;48.534;9.062;2023-08-08T02:02:05;97121.09;;;14.25;67.30
76611;BME280;65503;48.534;9.062;2023-08-08T02:04:32;97116.00;;;14.19;67.70
76611;BME280;65503;48.534;9.062;2023-08-08T02:06:59;97111.22;;;14.16;67.48
76611;BME280;65503;48.534;9.062;2023-08-08T02:09:26;97117.00;;;14.13;67.51
76611;BME280;65503;48.534;9.062;2023-08-08T02:11:53;97116.41;;;14.05;67.91
76611;BME280;65503;48.534;9.062;2023-08-08T02:14:19;97122.19;;;14.02;68.00
76611;BME280;65503;48.534;9.062;2023-08-08T02:16:46;97117.41;;;13.99;68.72
76611;BME280;65503;48.534;9.062;2023-08-08T02:19:13;97124.81;;;14.02;68.28
76611;BME280;65503;48.534;9.062;2023-08-08T02:21:40;97119.53;;;14.02;68.52
76611;BME280;65503;48.534;9.062;2023-08-08T02:24:06;97115.28;;;14.01;68.60
76611;BME280;65503;48.534;9.062;2023-08-08T02:26:33;97116.41;;;14.05;68.44
76611;BME280;65503;48.534;9.062;2023-08-08T02:28:59;97114.28;;;14.07;68.49
76611;BME280;65503;48.534;9.062;2023-08-08T02:31:26;97119.41;;;14.14;68.29
76611;BME280;65503;48.534;9.062;2023-08-08T02:33:52;97110.72;;;14.19;67.93
76611;BME280;65503;48.534;9.062;2023-08-08T02:36:19;97116.09;;;14.24;68.09
76611;BME280;65503;48.534;9.062;2023-08-08T02:38:45;97122.47;;;14.28;68.08
76611;BME280;65503;48.534;9.062;2023-08-08T02:41:12;97114.81;;;14.31;67.96
76611;BME280;65503;48.534;9.062;2023-08-08T02:43:39;97113.53;;;14.34;67.94
76611;BME280;65503;48.534;9.062;2023-08-08T02:46:05;97116.13;;;14.29;67.98
76611;BME280;65503;48.534;9.062;2023-08-08T02:48:32;97104.44;;;14.25;67.79
76611;BME280;65503;48.534;9.062;2023-08-08T02:50:58;97113.91;;;14.21;67.84
76611;BME280;65503;48.534;9.062;2023-08-08T02:53:25;97107.53;;;14.17;67.82
76611;BME280;65503;48.534;9.062;2023-08-08T02:55:51;97100.63;;;14.16;67.92
76611;BME280;65503;48.534;9.062;2023-08-08T02:58:18;97101.97;;;14.18;67.55
76611;BME280;65503;48.534;9.062;2023-08-08T03:00:44;97109.19;;;14.23;67.69
76611;BME280;65503;48.534;9.062;2023-08-08T03:03:11;97102.84;;;14.24;67.09
76611;BME280;65503;48.534;9.062;2023-08-08T03:05:37;97100.25;;;14.29;67.29
76611;BME280;65503;48.534;9.062;2023-08-08T03:08:04;97107.13;;;14.30;67.51
76611;BME280;65503;48.534;9.062;2023-08-08T03:10:31;97099.25;;;14.35;66.78
76611;BME280;65503;48.534;9.062;2023-08-08T03:12:58;97108.09;;;14.40;65.79
76611;BME280;65503;48.534;9.062;2023-08-08T03:15:24;97108.53;;;14.64;64.89
76611;BME280;65503;48.534;9.062;2023-08-08T03:17:51;97108.13;;;14.77;64.52
76611;BME280;65503;48.534;9.062;2023-08-08T03:20:17;97108.22;;;14.87;64.75
76611;BME280;65503;48.534;9.062;2023-08-08T03:22:44;97103.50;;;14.95;63.55
76611;BME280;65503;48.534;9.062;2023-08-08T03:25:10;97097.22;;;15.06;62.75
76611;BME280;65503;48.534;9.062;2023-08-08T03:27:37;97094.66;;;15.16;62.29
76611;BME280;65503;48.534;9.062;2023-08-08T03:30:04;97101.69;;;15.37;62.18
76611;BME280;65503;48.534;9.062;2023-08-08T03:32:31;97090.09;;;15.48;61.36
76611;BME280;65503;48.534;9.062;2023-08-08T03:34:58;97098.63;;;15.55;61.47
76611;BME280;65503;48.534;9.062;2023-08-08T03:37:24;97102.91;;;15.61;61.30
76611;BME280;65503;48.534;9.062;2023-08-08T03:39:51;97106.06;;;15.58;61.57
76611;BME280;65503;48.534;9.062;2023-08-08T03:42:18;97109.75;;;15.52;62.31
76611;BME280;65503;48.534;9.062;2023-08-08T03:44:44;97103.81;;;15.40;62.76
76611;BME280;65503;48.534;9.062;2023-08-08T03:47:11;97106.06;;;15.16;63.48
76611;BME280;65503;48.534;9.062;2023-08-08T03:49:45;97100.50;;;15.18;62.83
76611;BME280;65503;48.534;9.062;2023-08-08T03:52:12;97101.06;;;15.20;62.94
76611;BME280;65503;48.534;9.062;2023-08-08T03:54:39;97107.94;;;15.21;63.05
76611;BME280;65503;48.534;9.062;2023-08-08T03:57:06;97102.13;;;15.24;62.89
76611;BME280;65503;48.534;9.062;2023-08-08T03:59:32;97103.72;;;15.25;63.21
76611;BME280;65503;48.534;9.062;2023-08-08T04:01:59;97103.22;;;15.28;62.41
76611;BME280;65503;48.534;9.062;2023-08-08T04:04:26;97109.34;;;15.34;62.41
76611;BME280;65503;48.534;9.062;2023-08-08T04:06:52;97113.38;;;15.41;62.63
76611;BME280;65503;48.534;9.062;2023-08-08T04:09:19;97113.84;;;15.33;62.93
76611;BME280;65503;48.534;9.062;2023-08-08T04:11:46;97115.34;;;15.19;63.40
76611;BME280;65503;48.534;9.062;2023-08-08T04:14:13;97104.38;;;15.05;64.04
76611;BME280;65503;48.534;9.062;2023-08-08T04:16:39;97112.22;;;14.90;64.86
76611;BME280;65503;48.534;9.062;2023-08-08T04:19:06;97112.84;;;14.70;65.38
76611;BME280;65503;48.534;9.062;2023-08-08T04:21:33;97113.84;;;14.64;65.62
76611;BME280;65503;48.534;9.062;2023-08-08T04:23:59;97109.53;;;14.58;65.91
76611;BME280;65503;48.534;9.062;2023-08-08T04:26:26;97119.56;;;14.51;66.07
76611;BME280;65503;48.534;9.062;2023-08-08T04:28:53;97117.34;;;14.43;66.65
76611;BME280;65503;48.534;9.062;2023-08-08T04:31:19;97123.41;;;14.38;66.59
76611;BME280;65503;48.534;9.062;2023-08-08T04:33:46;97118.66;;;14.40;66.60
76611;BME280;65503;48.534;9.062;2023-08-08T04:36:13;97122.66;;;14.43;66.26
76611;BME280;65503;48.534;9.062;2023-08-08T04:38:39;97123.47;;;14.43;66.45
76611;BME280;65503;48.534;9.062;2023-08-08T04:41:06;97118.41;;;14.42;66.53
76611;BME280;65503;48.534;9.062;2023-08-08T04:43:32;97108.38;;;14.44;66.65
76611;BME280;65503;48.534;9.062;2023-08-08T04:45:59;97116.88;;;14.46;66.28
76611;BME280;65503;48.534;9.062;2023-08-08T04:48:25;97114.22;;;14.46;66.37
76611;BME280;65503;48.534;9.062;2023-08-08T04:50:52;97119.00;;;14.49;66.70
76611;BME280;65503;48.534;9.062;2023-08-08T04:53:20;97119.06;;;14.54;66.70
76611;BME280;65503;48.534;9.062;2023-08-08T04:55:46;97116.44;;;14.59;66.23
76611;BME280;65503;48.534;9.062;2023-08-08T04:58:13;97115.53;;;14.75;66.06
76611;BME280;65503;48.534;9.062;2023-08-08T05:00:40;97121.00;;;14.96;64.88
76611;BME280;65503;48.534;9.062;2023-08-08T05:03:07;97123.25;;;15.09;64.78
76611;BME280;65503;48.534;9.062;2023-08-08T05:05:33;97122.91;;;15.37;63.50
76611;BME280;65503;48.534;9.062;2023-08-08T05:08:00;97132.06;;;15.56;61.93
76611;BME280;65503;48.534;9.062;2023-08-08T05:10:26;97133.78;;;15.78;60.76
76611;BME280;65503;48.534;9.062;2023-08-08T05:12:53;97130.94;;;15.99;60.04
76611;BME280;65503;48.534;9.062;2023-08-08T05:15:19;97131.31;;;16.23;58.93
76611;BME280;65503;48.534;9.062;2023-08-08T05:17:46;97123.38;;;16.48;58.33
76611;BME280;65503;48.534;9.062;2023-08-08T05:20:12;97135.69;;;16.80;57.46
76611;BME280;65503;48.534;9.062;2023-08-08T05:22:39;97126.13;;;16.94;56.97
76611;BME280;65503;48.534;9.062;2023-08-08T05:25:06;97133.00;;;16.65;57.25
76611;BME280;65503;48.534;9.062;2023-08-08T05:27:33;97122.31;;;16.44;57.39
76611;BME280;65503;48.534;9.062;2023-08-08T05:30:01;97119.66;;;16.49;57.60
76611;BME280;65503;48.534;9.062;2023-08-08T05:32:27;97116.22;;;16.44;57.32
76611;BME280;65503;48.534;9.062;2023-08-08T05:34:54;97117.59;;;16.72;56.61
76611;BME280;65503;48.534;9.062;2023-08-08T05:37:26;97116.81;;;16.71;56.25
76611;BME280;65503;48.534;9.062;2023-08-08T05:39:53;97114.94;;;17.12;55.87
76611;BME280;65503;48.534;9.062;2023-08-08T05:42:20;97120.75;;;17.45;54.79
76611;BME280;65503;48.534;9.062;2023-08-08T05:44:46;97122.88;;;17.53;55.17
76611;BME280;65503;48.534;9.062;2023-08-08T05:47:13;97126.34;;;17.48;54.10
76611;BME280;65503;48.534;9.062;2023-08-08T05:49:40;97114.94;;;17.17;54.55
76611;BME280;65503;48.534;9.062;2023-08-08T05:52:09;97120.81;;;16.84;55.58
76611;BME280;65503;48.534;9.062;2023-08-08T05:54:36;97120.00;;;16.73;56.31
76611;BME280;65503;48.534;9.062;2023-08-08T05:57:03;97127.09;;;16.58;56.38
76611;BME280;65503;48.534;9.062;2023-08-08T05:59:30;97127.63;;;16.39;56.99
76611;BME280;65503;48.534;9.062;2023-08-08T06:01:56;97120.97;;;16.47;57.33
76611;BME280;65503;48.534;9.062;2023-08-08T06:04:23;97117.59;;;16.92;55.37
76611;BME280;65503;48.534;9.062;2023-08-08T06:06:50;97122.38;;;17.41;55.20
76611;BME280;65503;48.534;9.062;2023-08-08T06:09:16;97121.47;;;17.86;53.60
76611;BME280;65503;48.534;9.062;2023-08-08T06:11:43;97127.91;;;18.39;53.32
76611;BME280;65503;48.534;9.062;2023-08-08T06:14:10;97124.44;;;18.38;51.14
76611;BME280;65503;48.534;9.062;2023-08-08T06:16:36;97126.66;;;18.70;51.56
76611;BME280;65503;48.534;9.062;2023-08-08T06:19:03;97120.97;;;19.16;49.91
76611;BME280;65503;48.534;9.062;2023-08-08T06:21:29;97125.69;;;19.82;48.39
76611;BME280;65503;48.534;9.062;2023-08-08T06:23:56;97130.97;;;20.29;48.13
76611;BME280;65503;48.534;9.062;2023-08-08T06:26:23;97126.97;;;20.88;46.85
76611;BME280;65503;48.534;9.062;2023-08-08T06:28:50;97118.97;;;21.20;45.28
76611;BME280;65503;48.534;9.062;2023-08-08T06:31:18;97125.63;;;21.04;45.31
76611;BME280;65503;48.534;9.062;2023-08-08T06:33:45;97121.97;;;21.00;44.99
76611;BME280;65503;48.534;9.062;2023-08-08T06:36:12;97125.28;;;21.11;44.41
76611;BME280;65503;48.534;9.062;2023-08-08T06:38:38;97131.72;;;20.91;45.48
76611;BME280;65503;48.534;9.062;2023-08-08T06:41:05;97122.66;;;20.12;46.40
76611;BME280;65503;48.534;9.062;2023-08-08T06:43:32;97131.56;;;20.26;47.19
76611;BME280;65503;48.534;9.062;2023-08-08T06:45:58;97127.91;;;20.17;46.95
76611;BME280;65503;48.534;9.062;2023-08-08T06:48:25;97121.69;;;20.64;46.53
76611;BME280;65503;48.534;9.062;2023-08-08T06:50:51;97115.03;;;20.99;45.72
76611;BME280;65503;48.534;9.062;2023-08-08T06:53:18;97115.28;;;21.62;43.85
76611;BME280;65503;48.534;9.062;2023-08-08T06:55:44;97114.81;;;22.01;44.03
76611;BME280;65503;48.534;9.062;2023-08-08T06:58:11;97122.28;;;22.54;41.82
76611;BME280;65503;48.534;9.062;2023-08-08T07:00:37;97122.81;;;22.29;42.40
76611;BME280;65503;48.534;9.062;2023-08-08T07:03:04;97115.22;;;22.58;42.55
76611;BME280;65503;48.534;9.062;2023-08-08T07:05:31;97117.34;;;23.28;41.71
76611;BME280;65503;48.534;9.062;2023-08-08T07:07:58;97120.09;;;23.67;39.63
76611;BME280;65503;48.534;9.062;2023-08-08T07:10:24;97124.44;;;23.85;39.50
76611;BME280;65503;48.534;9.062;2023-08-08T07:12:51;97119.75;;;23.60;40.05
76611;BME280;65503;48.534;9.062;2023-08-08T07:15:18;97121.06;;;23.40;40.25
76611;BME280;65503;48.534;9.062;2023-08-08T07:17:44;97120.28;;;23.18;40.31
76611;BME280;65503;48.534;9.062;2023-08-08T07:20:11;97123.06;;;22.90;42.59
76611;BME280;65503;48.534;9.062;2023-08-08T07:22:40;97117.72;;;22.90;41.08
76611;BME280;65503;48.534;9.062;2023-08-08T07:25:07;97117.25;;;22.39;41.79
76611;BME280;65503;48.534;9.062;2023-08-08T07:27:34;97114.56;;;22.88;42.29
76611;BME280;65503;48.534;9.062;2023-08-08T07:30:00;97111.59;;;23.21;42.20
76611;BME280;65503;48.534;9.062;2023-08-08T07:32:27;97112.16;;;24.02;39.70
76611;BME280;65503;48.534;9.062;2023-08-08T07:34:57;97113.41;;;24.52;38.64
76611;BME280;65503;48.534;9.062;2023-08-08T07:37:24;97111.72;;;24.17;38.36
76611;BME280;65503;48.534;9.062;2023-08-08T07:39:50;97115.03;;;24.14;39.29
76611;BME280;65503;48.534;9.062;2023-08-08T07:42:20;97100.56;;;23.93;38.48
76611;BME280;65503;48.534;9.062;2023-08-08T07:44:46;97102.03;;;23.59;38.53
76611;BME280;65503;48.534;9.062;2023-08-08T07:47:13;97099.63;;;23.88;39.17
76611;BME280;65503;48.534;9.062;2023-08-08T07:49:39;97105.94;;;24.49;37.68
76611;BME280;65503;48.534;9.062;2023-08-08T07:52:06;97113.41;;;24.87;37.00
76611;BME280;65503;48.534;9.062;2023-08-08T07:54:34;97104.97;;;24.19;36.62
76611;BME280;65503;48.534;9.062;2023-08-08T07:57:00;97104.34;;;23.83;36.76
76611;BME280;65503;48.534;9.062;2023-08-08T07:59:27;97106.72;;;23.84;38.23
76611;BME280;65503;48.534;9.062;2023-08-08T08:01:53;97097.50;;;23.68;38.54
76611;BME280;65503;48.534;9.062;2023-08-08T08:04:20;97094.44;;;24.01;36.94
76611;BME280;65503;48.534;9.062;2023-08-08T08:06:46;97102.03;;;23.59;38.05
76611;BME280;65503;48.534;9.062;2023-08-08T08:09:13;97095.06;;;23.58;38.97
76611;BME280;65503;48.534;9.062;2023-08-08T08:11:40;97093.00;;;23.55;39.18
76611;BME280;65503;48.534;9.062;2023-08-08T08:14:06;97093.50;;;23.57;39.06
76611;BME280;65503;48.534;9.062;2023-08-08T08:16:33;97097.78;;;23.36;38.25
76611;BME280;65503;48.534;9.062;2023-08-08T08:19:00;97095.94;;;23.14;38.19
76611;BME280;65503;48.534;9.062;2023-08-08T08:21:26;97101.69;;;23.30;38.96
76611;BME280;65503;48.534;9.062;2023-08-08T08:23:53;97100.63;;;22.86;38.70
76611;BME280;65503;48.534;9.062;2023-08-08T08:26:19;97102.66;;;22.67;40.48
76611;BME280;65503;48.534;9.062;2023-08-08T08:28:46;97104.75;;;23.37;39.40
76611;BME280;65503;48.534;9.062;2023-08-08T08:31:12;97102.84;;;23.06;38.55
76611;BME280;65503;48.534;9.062;2023-08-08T08:33:39;97103.00;;;23.10;39.41
76611;BME280;65503;48.534;9.062;2023-08-08T08:36:06;97104.88;;;23.32;39.05
76611;BME280;65503;48.534;9.062;2023-08-08T08:38:33;97100.97;;;23.38;37.58
76611;BME280;65503;48.534;9.062;2023-08-08T08:41:00;97095.75;;;23.11;38.49
76611;BME280;65503;48.534;9.062;2023-08-08T08:43:30;97098.34;;;23.24;38.88
76611;BME280;65503;48.534;9.062;2023-08-08T08:46:00;97096.72;;;23.76;36.87
76611;BME280;65503;48.534;9.062;2023-08-08T08:48:28;97093.84;;;23.64;37.44
76611;BME280;65503;48.534;9.062;2023-08-08T08:50:55;97088.75;;;23.54;37.32
76611;BME280;65503;48.534;9.062;2023-08-08T08:53:24;97094.53;;;23.78;37.68
76611;BME280;65503;48.534;9.062;2023-08-08T08:55:51;97090.66;;;24.10;36.44
76611;BME280;65503;48.534;9.062;2023-08-08T08:58:17;97094.00;;;24.16;36.34
76611;BME280;65503;48.534;9.062;2023-08-08T09:00:46;97087.56;;;23.77;36.34
76611;BME280;65503;48.534;9.062;2023-08-08T09:03:13;97086.97;;;23.80;37.12
76611;BME280;65503;48.534;9.062;2023-08-08T09:05:41;97091.13;;;24.04;38.16
76611;BME280;65503;48.534;9.062;2023-08-08T09:08:08;97088.53;;;24.55;34.92
76611;BME280;65503;48.534;9.062;2023-08-08T09:10:35;97089.16;;;24.35;36.54
76611;BME280;65503;48.534;9.062;2023-08-08T09:13:02;97083.38;;;23.54;36.66
76611;BME280;65503;48.534;9.062;2023-08-08T09:15:32;97087.16;;;23.53;37.74
76611;BME280;65503;48.534;9.062;2023-08-08T09:18:00;97086.38;;;23.30;37.43
76611;BME280;65503;48.534;9.062;2023-08-08T09:20:27;97095.06;;;23.98;37.66
76611;BME280;65503;48.534;9.062;2023-08-08T09:22:57;97082.19;;;23.69;36.85
76611;BME280;65503;48.534;9.062;2023-08-08T09:25:24;97087.66;;;23.33;37.58
76611;BME280;65503;48.534;9.062;2023-08-08T09:27:51;97083.47;;;22.96;37.28
76611;BME280;65503;48.534;9.062;2023-08-08T09:30:20;97085.13;;;23.28;38.21
76611;BME280;65503;48.534;9.062;2023-08-08T09:32:47;97083.66;;;23.53;36.79
76611;BME280;65503;48.534;9.062;2023-08-08T09:35:14;97074.84;;;23.52;37.71
76611;BME280;65503;48.534;9.062;2023-08-08T09:37:41;97072.69;;;23.40;37.87
76611;BME280;65503;48.534;9.062;2023-08-08T09:40:08;97074.97;;;23.25;37.29
76611;BME280;65503;48.534;9.062;2023-08-08T09:42:39;97081.25;;;23.12;39.49
76611;BME280;65503;48.534;9.062;2023-08-08T09:45:08;97078.59;;;23.20;37.80
76611;BME280;65503;48.534;9.062;2023-08-08T09:47:35;97069.66;;;23.64;37.12
76611;BME280;65503;48.534;9.062;2023-08-08T09:50:03;97073.28;;;23.29;38.06
76611;BME280;65503;48.534;9.062;2023-08-08T09:52:33;97076.25;;;23.50;37.22
76611;BME280;65503;48.534;9.062;2023-08-08T09:55:00;97067.69;;;23.96;35.24
76611;BME280;65503;48.534;9.062;2023-08-08T09:57:26;97067.09;;;24.16;35.94
76611;BME280;65503;48.534;9.062;2023-08-08T09:59:53;97056.59;;;23.80;35.87
76611;BME280;65503;48.534;9.062;2023-08-08T10:02:20;97052.06;;;23.58;36.90
76611;BME280;65503;48.534;9.062;2023-08-08T10:04:47;97053.44;;;23.86;36.37
76611;BME280;65503;48.534;9.062;2023-08-08T10:07:14;97057.81;;;24.22;35.74
76611;BME280;65503;48.534;9.062;2023-08-08T10:09:41;97054.78;;;24.15;35.60
76611;BME280;65503;48.534;9.062;2023-08-08T10:12:08;97053.81;;;24.02;35.83
76611;BME280;65503;48.534;9.062;2023-08-08T10:14:38;97054.34;;;24.30;35.59
76611;BME280;65503;48.534;9.062;2023-08-08T10:17:08;97049.13;;;24.25;35.36
76611;BME280;65503;48.534;9.062;2023-08-08T10:19:34;97049.69;;;24.05;35.02
76611;BME280;65503;48.534;9.062;2023-08-08T10:22:05;97046.88;;;24.27;35.62
76611;BME280;65503;48.534;9.062;2023-08-08T10:24:35;97045.00;;;24.36;35.65
76611;BME280;65503;48.534;9.062;2023-08-08T10:27:03;97056.38;;;24.33;35.72
76611;BME280;65503;48.534;9.062;2023-08-08T10:29:32;97039.97;;;23.78;35.13
76611;BME280;65503;48.534;9.062;2023-08-08T10:32:04;97044.56;;;23.77;36.36
76611;BME280;65503;48.534;9.062;2023-08-08T10:34:37;97046.72;;;24.15;35.00
76611;BME280;65503;48.534;9.062;2023-08-08T10:37:08;97046.75;;;24.41;33.75
76611;BME280;65503;48.534;9.062;2023-08-08T10:39:35;97050.06;;;24.29;34.42
76611;BME280;65503;48.534;9.062;2023-08-08T10:42:05;97043.84;;;24.03;35.22
76611;BME280;65503;48.534;9.062;2023-08-08T10:44:40;97038.97;;;24.22;35.46
76611;BME280;65503;48.534;9.062;2023-08-08T10:47:07;97041.50;;;24.79;35.66
76611;BME280;65503;48.534;9.062;2023-08-08T10:49:34;97036.25;;;25.08;33.16
76611;BME280;65503;48.534;9.062;2023-08-08T10:52:02;97032.16;;;24.93;33.59
76611;BME280;65503;48.534;9.062;2023-08-08T10:54:29;97041.38;;;25.77;35.10
76611;BME280;65503;48.534;9.062;2023-08-08T10:56:58;97039.00;;;26.05;30.92
76611;BME280;65503;48.534;9.062;2023-08-08T10:59:35;97034.13;;;25.69;31.80
76611;BME280;65503;48.534;9.062;2023-08-08T11:02:02;97035.97;;;24.75;32.78
76611;BME280;65503;48.534;9.062;2023-08-08T11:04:29;97042.47;;;24.83;33.73
76611;BME280;65503;48.534;9.062;2023-08-08T11:06:58;97033.19;;;25.18;32.28
76611;BME280;65503;48.534;9.062;2023-08-08T11:09:24;97033.06;;;25.15;30.86
76611;BME280;65503;48.534;9.062;2023-08-08T11:11:52;97030.41;;;25.06;30.97
76611;BME280;65503;48.534;9.062;2023-08-08T11:14:20;97026.28;;;25.00;31.11
76611;BME280;65503;48.534;9.062;2023-08-08T11:16:48;97021.97;;;25.16;31.58
76611;BME280;65503;48.534;9.062;2023-08-08T11:19:15;97025.22;;;25.30;31.28
76611;BME280;65503;48.534;9.062;2023-08-08T11:21:46;97021.72;;;24.75;30.71
76611;BME280;65503;48.534;9.062;2023-08-08T11:24:13;97029.44;;;25.02;31.92
76611;BME280;65503;48.534;9.062;2023-08-08T11:26:41;97030.09;;;24.99;31.64
76611;BME280;65503;48.534;9.062;2023-08-08T11:29:08;97033.09;;;24.97;32.82
76611;BME280;65503;48.534;9.062;2023-08-08T11:31:35;97024.41;;;24.57;32.63
76611;BME280;65503;48.534;9.062;2023-08-08T11:34:02;97017.72;;;23.95;32.43
76611;BME280;65503;48.534;9.062;2023-08-08T11:36:30;97018.44;;;24.43;33.20
76611;BME280;65503;48.534;9.062;2023-08-08T11:38:57;97023.44;;;24.88;32.46
76611;BME280;65503;48.534;9.062;2023-08-08T11:41:26;97013.94;;;24.99;32.66
76611;BME280;65503;48.534;9.062;2023-08-08T11:43:53;97015.56;;;24.65;32.90
76611;BME280;65503;48.534;9.062;2023-08-08T11:46:23;97019.03;;;24.40;31.91
76611;BME280;65503;48.534;9.062;2023-08-08T11:48:51;97016.34;;;24.66;32.87
76611;BME280;65503;48.534;9.062;2023-08-08T11:51:17;97007.34;;;24.53;33.09
76611;BME280;65503;48.534;9.062;2023-08-08T11:53:51;97012.22;;;24.94;31.36
76611;BME280;65503;48.534;9.062;2023-08-08T11:56:21;97004.97;;;25.24;32.20
76611;BME280;65503;48.534;9.062;2023-08-08T11:58:51;97009.66;;;24.89;32.10
76611;BME280;65503;48.534;9.062;2023-08-08T12:01:27;96997.00;;;25.36;31.13
76611;BME280;65503;48.534;9.062;2023-08-08T12:03:54;96995.16;;;25.28;31.49
76611;BME280;65503;48.534;9.062;2023-08-08T12:06:21;96999.38;;;25.00;31.50
76611;BME280;65503;48.534;9.062;2023-08-08T12:08:48;97008.25;;;24.75;31.18
76611;BME280;65503;48.534;9.062;2023-08-08T12:11:15;97011.13;;;24.52;31.26
76611;BME280;65503;48.534;9.062;2023-08-08T12:13:43;97001.53;;;25.15;30.77
76611;BME280;65503;48.534;9.062;2023-08-08T12:16:12;97001.38;;;25.12;27.85
76611;BME280;65503;48.534;9.062;2023-08-08T12:18:43;96999.06;;;25.69;29.14
76611;BME280;65503;48.534;9.062;2023-08-08T12:21:10;96997.22;;;25.90;27.96
76611;BME280;65503;48.534;9.062;2023-08-08T12:23:37;96999.81;;;26.07;28.81
76611;BME280;65503;48.534;9.062;2023-08-08T12:26:04;96992.50;;;25.49;30.22
76611;BME280;65503;48.534;9.062;2023-08-08T12:28:32;96988.56;;;25.76;32.17
76611;BME280;65503;48.534;9.062;2023-08-08T12:30:59;96985.19;;;26.08;30.56
76611;BME280;65503;48.534;9.062;2023-08-08T12:33:26;96988.75;;;26.42;29.68
76611;BME280;65503;48.534;9.062;2023-08-08T12:35:52;96991.63;;;25.95;29.17
76611;BME280;65503;48.534;9.062;2023-08-08T12:38:19;96979.53;;;25.42;28.75
76611;BME280;65503;48.534;9.062;2023-08-08T12:40:45;96979.38;;;25.77;30.32
76611;BME280;65503;48.534;9.062;2023-08-08T12:43:12;96976.09;;;25.92;29.51
76611;BME280;65503;48.534;9.062;2023-08-08T12:45:40;96981.25;;;25.85;28.61
76611;BME280;65503;48.534;9.062;2023-08-08T12:48:06;96986.13;;;25.53;29.81
76611;BME280;65503;48.534;9.062;2023-08-08T12:50:33;96980.50;;;25.38;29.55
76611;BME280;65503;48.534;9.062;2023-08-08T12:53:00;96978.88;;;26.04;29.54
76611;BME280;65503;48.534;9.062;2023-08-08T12:55:26;96974.06;;;25.89;28.73
76611;BME280;65503;48.534;9.062;2023-08-08T12:57:53;96975.31;;;25.91;29.65
76611;BME280;65503;48.534;9.062;2023-08-08T13:00:19;96962.53;;;25.50;30.60
76611;BME280;65503;48.534;9.062;2023-08-08T13:02:46;96967.69;;;25.93;30.24